createdAt,value
2018-12-17T00:01:39.074Z,101204.41
2018-12-17T00:04:08.884Z,101209.72
2018-12-17T00:06:38.866Z,101203.71
2018-12-17T00:09:09.179Z,101195.81
2018-12-17T00:11:39.457Z,101204.75
2018-12-17T00:14:09.445Z,101204.33
2018-12-17T00:16:39.298Z,101204.75
2018-12-17T00:19:09.128Z,101202.67
2018-12-17T00:21:38.819Z,101204.52
2018-12-17T00:24:08.753Z,101200.27
2018-12-17T00:26:38.418Z,101199.48
2018-12-17T00:29:08.179Z,101196.89
2018-12-17T00:31:37.988Z,101191.62
2018-12-17T00:34:07.738Z,101187.67
2018-12-17T00:36:37.540Z,101187.32
2018-12-17T00:39:08.679Z,101184.02
2018-12-17T00:41:38.484Z,101186.08
2018-12-17T00:44:08.318Z,101188.41
2018-12-17T00:46:38.080Z,101182.36
2018-12-17T00:49:07.944Z,101179.49
2018-12-17T00:51:37.856Z,101170.78
2018-12-17T00:54:07.657Z,101172.91
2018-12-17T00:56:37.276Z,101175.23
2018-12-17T00:59:07.196Z,101176.05
2018-12-17T01:01:36.931Z,101165.97
2018-12-17T01:04:07.039Z,101170.84
2018-12-17T01:06:36.967Z,101176.86
2018-12-17T01:09:10.716Z,101179.53
2018-12-17T01:11:40.397Z,101177.44
2018-12-17T01:14:10.195Z,101172.95
2018-12-17T01:16:39.928Z,101167.09
2018-12-17T01:19:09.632Z,101169.57
2018-12-17T01:21:39.321Z,101171.97
2018-12-17T01:24:09.181Z,101174.03
2018-12-17T01:26:38.903Z,101174.73
2018-12-17T01:29:08.667Z,101173.06
2018-12-17T01:31:38.415Z,101174.73
2018-12-17T01:34:08.218Z,101180.85
2018-12-17T01:36:38.052Z,101187.05
2018-12-17T01:39:08.533Z,101173.96
2018-12-17T01:41:38.365Z,101184.95
2018-12-17T01:44:08.073Z,101182.33
2018-12-17T01:46:37.816Z,101178.91
2018-12-17T01:49:07.508Z,101185.50
2018-12-17T01:51:38.130Z,101183.25
2018-12-17T01:54:07.869Z,101181.34
2018-12-17T01:56:37.513Z,101176.55
2018-12-17T01:59:07.359Z,101173.09
2018-12-17T02:01:37.308Z,101179.09
2018-12-17T02:04:07.520Z,101172.24
2018-12-17T02:06:37.416Z,101173.79
2018-12-17T02:09:08.762Z,101175.34
2018-12-17T02:11:39.291Z,101168.17
2018-12-17T02:14:09.213Z,101168.09
2018-12-17T02:16:38.976Z,101173.90
2018-12-17T02:19:08.982Z,101176.45
2018-12-17T02:21:38.724Z,101172.96
2018-12-17T02:24:08.452Z,101182.68
2018-12-17T02:26:38.135Z,101180.55
2018-12-17T02:29:07.880Z,101180.91
2018-12-17T02:31:37.772Z,101178.00
2018-12-17T02:34:07.664Z,101171.41
2018-12-17T02:36:37.534Z,101182.68
2018-12-17T02:39:09.100Z,101194.30
2018-12-17T02:41:39.094Z,101187.44
2018-12-17T02:44:08.816Z,101192.20
2018-12-17T02:46:39.248Z,101193.72
2018-12-17T02:49:09.353Z,101195.56
2018-12-17T02:51:39.616Z,101192.94
2018-12-17T02:54:09.377Z,101194.38
2018-12-17T02:56:39.064Z,101199.11
2018-12-17T02:59:08.948Z,101201.23
2018-12-17T03:01:38.838Z,101200.77
2018-12-17T03:04:08.876Z,101201.59
2018-12-17T03:06:38.897Z,101203.18
2018-12-17T03:09:08.623Z,101202.45
2018-12-17T03:11:38.374Z,101200.63
2018-12-17T03:14:08.225Z,101200.90
2018-12-17T03:16:37.898Z,101202.75
2018-12-17T03:19:07.557Z,101201.67
2018-12-17T03:21:37.220Z,101205.16
2018-12-17T03:24:07.050Z,101202.98
2018-12-17T03:26:36.858Z,101204.50
2018-12-17T03:29:06.760Z,101204.73
2018-12-17T03:31:36.780Z,101207.36
2018-12-17T03:34:06.667Z,101214.98
2018-12-17T03:36:36.549Z,101217.61
2018-12-17T03:39:07.999Z,101212.58
2018-12-17T03:41:38.241Z,101210.45
2018-12-17T03:44:08.021Z,101213.20
2018-12-17T03:46:37.707Z,101203.72
2018-12-17T03:49:07.662Z,101207.20
2018-12-17T03:51:37.756Z,101210.82
2018-12-17T03:54:07.453Z,101202.61
2018-12-17T03:56:37.345Z,101209.79
2018-12-17T03:59:07.157Z,101203.48
2018-12-17T04:01:37.093Z,101207.85
2018-12-17T04:04:06.821Z,101204.63
2018-12-17T04:06:36.626Z,101213.90
2018-12-17T04:09:07.961Z,101208.70
2018-12-17T04:11:37.762Z,101204.62
2018-12-17T04:14:07.491Z,101202.74
2018-12-17T04:16:37.552Z,101205.69
2018-12-17T04:19:07.421Z,101203.19
2018-12-17T04:21:37.226Z,101205.83
2018-12-17T04:24:07.233Z,101199.66
2018-12-17T04:26:37.034Z,101206.69
2018-12-17T04:29:07.311Z,101204.52
2018-12-17T04:31:37.299Z,101208.20
2018-12-17T04:34:07.338Z,101210.03
2018-12-17T04:36:37.095Z,101206.59
2018-12-17T04:39:08.168Z,101209.52
2018-12-17T04:41:38.041Z,101210.75
2018-12-17T04:44:07.778Z,101211.22
2018-12-17T04:46:37.717Z,101226.30
2018-12-17T04:49:07.501Z,101229.75
2018-12-17T04:51:37.176Z,101220.63
2018-12-17T04:54:06.898Z,101228.80
2018-12-17T04:56:36.553Z,101219.64
2018-12-17T04:59:06.198Z,101224.78
2018-12-17T05:01:36.235Z,101229.48
2018-12-17T05:04:06.201Z,101238.14
2018-12-17T05:06:36.030Z,101231.62
2018-12-17T05:09:08.865Z,101235.81
2018-12-17T05:11:38.720Z,101243.02
2018-12-17T05:14:08.452Z,101241.80
2018-12-17T05:16:39.242Z,101241.19
2018-12-17T05:19:08.996Z,101245.99
2018-12-17T05:21:38.798Z,101234.69
2018-12-17T05:24:08.524Z,101245.52
2018-12-17T05:26:38.306Z,101243.12
2018-12-17T05:29:08.636Z,101239.33
2018-12-17T05:31:38.376Z,101236.15
2018-12-17T05:34:08.230Z,101248.26
2018-12-17T05:36:38.221Z,101242.88
2018-12-17T05:39:08.673Z,101246.80
2018-12-17T05:41:38.401Z,101250.77
2018-12-17T05:44:08.252Z,101253.67
2018-12-17T05:46:38.132Z,101255.05
2018-12-17T05:49:07.847Z,101265.50
2018-12-17T05:51:37.655Z,101264.48
2018-12-17T05:54:07.329Z,101265.41
2018-12-17T05:56:37.245Z,101266.15
2018-12-17T05:59:07.145Z,101269.38
2018-12-17T06:01:37.827Z,101273.39
2018-12-17T06:04:07.755Z,101274.31
2018-12-17T06:06:37.696Z,101277.42
2018-12-17T06:09:12.298Z,101280.56
2018-12-17T06:11:42.319Z,101282.32
2018-12-17T06:14:12.160Z,101282.23
2018-12-17T06:16:42.016Z,101285.20
2018-12-17T06:19:11.843Z,101292.45
2018-12-17T06:21:41.811Z,101293.77
2018-12-17T06:24:11.473Z,101293.19
2018-12-17T06:26:41.131Z,101293.94
2018-12-17T06:29:11.130Z,101291.77
2018-12-17T06:31:41.909Z,101298.94
2018-12-17T06:34:12.070Z,101296.51
2018-12-17T06:36:42.960Z,101298.57
2018-12-17T06:39:14.863Z,101301.58
2018-12-17T06:41:44.787Z,101303.38
2018-12-17T06:44:14.560Z,101307.27
2018-12-17T06:46:44.295Z,101303.20
2018-12-17T06:49:14.216Z,101308.28
2018-12-17T06:51:44.327Z,101318.64
2018-12-17T06:54:14.000Z,101320.64
2018-12-17T06:56:43.820Z,101327.20
2018-12-17T06:59:13.592Z,101334.95
2018-12-17T07:01:43.367Z,101337.59
2018-12-17T07:04:13.168Z,101336.77
2018-12-17T07:06:42.996Z,101347.41
2018-12-17T07:09:13.853Z,101344.02
2018-12-17T07:11:43.811Z,101350.31
2018-12-17T07:14:13.655Z,101355.59
2018-12-17T07:16:43.490Z,101359.73
2018-12-17T07:19:13.268Z,101356.44
2018-12-17T07:21:43.096Z,101366.56
2018-12-17T07:24:12.792Z,101369.09
2018-12-17T07:26:42.644Z,101371.27
2018-12-17T07:29:12.316Z,101373.91
2018-12-17T07:31:42.155Z,101382.78
2018-12-17T07:34:12.028Z,101380.95
2018-12-17T07:36:41.908Z,101380.41
2018-12-17T07:39:11.697Z,101384.21
2018-12-17T07:41:41.517Z,101384.10
2018-12-17T07:44:11.431Z,101383.87
2018-12-17T07:46:41.255Z,101387.83
2018-12-17T07:49:11.122Z,101385.49
2018-12-17T08:00:41.428Z,101393.32
2018-12-17T08:03:11.155Z,101393.39
2018-12-17T08:06:44.082Z,101405.07
2018-12-17T08:09:14.426Z,101404.16
2018-12-17T08:11:44.555Z,101405.48
2018-12-17T08:14:14.634Z,101404.97
2018-12-17T08:16:44.702Z,101410.45
2018-12-17T08:22:02.532Z,101416.55
2018-12-17T08:24:32.275Z,101410.02
2018-12-17T08:27:02.002Z,101411.68
2018-12-17T08:29:31.917Z,101431.02
2018-12-17T08:32:01.687Z,101434.80
2018-12-17T08:34:32.083Z,101429.94
2018-12-17T08:37:01.856Z,101450.63
2018-12-17T08:39:31.722Z,101434.17
2018-12-17T08:42:01.791Z,101440.91
2018-12-17T08:44:31.843Z,101446.02
2018-12-17T08:47:01.619Z,101453.44
2018-12-17T08:49:31.586Z,101450.13
2018-12-17T08:52:01.510Z,101457.81
2018-12-17T08:54:31.623Z,101457.61
2018-12-17T08:57:02.958Z,101458.56
2018-12-17T08:59:32.922Z,101464.55
2018-12-17T09:02:02.801Z,101463.27
2018-12-17T09:04:32.607Z,101473.23
2018-12-17T09:07:02.885Z,101474.41
2018-12-17T09:09:32.681Z,101465.03
2018-12-17T09:12:02.825Z,101480.72
2018-12-17T09:14:32.637Z,101471.36
2018-12-17T09:17:02.486Z,101473.06
2018-12-17T09:19:32.804Z,101483.80
2018-12-17T09:22:02.516Z,101475.39
2018-12-17T09:24:33.152Z,101486.44
2018-12-17T09:27:03.590Z,101487.82
2018-12-17T09:29:33.548Z,101486.20
2018-12-17T09:32:03.417Z,101486.30
2018-12-17T09:34:33.553Z,101488.28
2018-12-17T09:37:03.713Z,101494.11
2018-12-17T09:39:33.572Z,101501.27
2018-12-17T09:42:03.428Z,101506.02
2018-12-17T09:44:33.329Z,101504.93
2018-12-17T09:47:04.680Z,101500.48
2018-12-17T09:49:34.709Z,101512.32
2018-12-17T09:52:05.186Z,101506.45
2018-12-17T09:54:35.002Z,101520.80
2018-12-17T09:57:05.081Z,101513.73
2018-12-17T09:59:34.818Z,101516.91
2018-12-17T10:02:05.185Z,101529.77
2018-12-17T10:04:34.949Z,101525.83
2018-12-17T10:07:04.694Z,101513.42
2018-12-17T10:09:34.612Z,101519.70
2018-12-17T10:12:04.783Z,101527.77
2018-12-17T10:14:34.919Z,101519.27
2018-12-17T10:17:05.090Z,101513.59
2018-12-17T10:19:34.777Z,101511.19
2018-12-17T10:22:04.679Z,101521.02
2018-12-17T10:24:34.370Z,101513.09
2018-12-17T10:27:04.113Z,101519.80
2018-12-17T10:29:34.527Z,101522.95
2018-12-17T10:32:05.376Z,101525.66
2018-12-17T10:34:35.605Z,101524.66
2018-12-17T10:37:05.467Z,101532.52
2018-12-17T10:39:35.792Z,101537.75
2018-12-17T10:42:05.736Z,101539.46
2018-12-17T10:44:35.522Z,101534.38
2018-12-17T10:47:05.593Z,101541.87
2018-12-17T10:49:35.523Z,101534.95
2018-12-17T10:52:05.555Z,101540.06
2018-12-17T10:54:35.477Z,101534.80
2018-12-17T10:57:05.262Z,101547.77
2018-12-17T10:59:35.054Z,101550.83
2018-12-17T11:05:08.992Z,101545.98
2018-12-17T11:07:38.961Z,101543.34
2018-12-17T11:10:10.020Z,101544.20
2018-12-17T11:12:40.013Z,101547.09
2018-12-17T11:15:12.033Z,101547.63
2018-12-17T11:17:42.007Z,101547.39
2018-12-17T11:20:13.284Z,101548.72
2018-12-17T11:22:43.858Z,101547.21
2018-12-17T11:25:13.926Z,101540.97
2018-12-17T11:27:44.359Z,101540.76
2018-12-17T11:30:14.215Z,101542.89
2018-12-17T11:32:44.874Z,101548.67
2018-12-17T11:35:14.879Z,101556.95
2018-12-17T11:37:44.722Z,101552.44
2018-12-17T11:40:14.537Z,101550.59
2018-12-17T11:42:44.433Z,101566.23
2018-12-17T11:45:15.042Z,101564.08
2018-12-17T11:47:44.925Z,101565.64
2018-12-17T11:50:14.582Z,101567.75
2018-12-17T11:52:48.645Z,101559.86
2018-12-17T11:55:18.400Z,101565.48
2018-12-17T11:58:05.414Z,101568.63
2018-12-17T12:00:35.240Z,101563.67
2018-12-17T12:03:04.968Z,101569.81
2018-12-17T12:05:34.707Z,101570.11
2018-12-17T12:08:04.662Z,101569.22
2018-12-17T12:10:34.400Z,101573.76
2018-12-17T12:13:04.408Z,101576.59
2018-12-17T12:15:34.304Z,101577.22
2018-12-17T12:18:04.169Z,101570.68
2018-12-17T12:20:34.594Z,101577.25
2018-12-17T12:23:06.064Z,101576.19
2018-12-17T12:25:35.838Z,101586.52
2018-12-17T12:28:05.637Z,101586.52
2018-12-17T12:30:35.291Z,101586.52
2018-12-17T12:33:06.392Z,101587.35
2018-12-17T12:35:36.873Z,101595.70
2018-12-17T12:38:06.781Z,101594.19
2018-12-17T12:40:36.471Z,101597.38
2018-12-17T12:43:06.503Z,101603.16
2018-12-17T12:45:36.442Z,101601.56
2018-12-17T12:48:06.408Z,101607.89
2018-12-17T12:50:36.292Z,101610.69
2018-12-17T12:53:06.168Z,101616.53
2018-12-17T12:55:35.905Z,101616.86
2018-12-17T12:58:05.811Z,101620.17
2018-12-17T13:00:35.603Z,101625.41
2018-12-17T13:03:06.003Z,101629.63
2018-12-17T13:05:35.689Z,101630.61
2018-12-17T13:08:05.660Z,101632.88
2018-12-17T13:10:35.429Z,101633.08
2018-12-17T13:13:05.355Z,101638.83
2018-12-17T13:15:35.397Z,101651.14
2018-12-17T13:18:05.607Z,101641.87
2018-12-17T13:20:35.803Z,101662.25
2018-12-17T13:23:05.763Z,101666.45
2018-12-17T13:25:41.021Z,101668.69
2018-12-17T13:28:10.897Z,101669.31
2018-12-17T13:30:40.650Z,101670.85
2018-12-17T13:33:10.407Z,101676.16
2018-12-17T13:35:40.197Z,101673.74
2018-12-17T13:38:10.012Z,101679.40
2018-12-17T13:40:39.860Z,101683.04
2018-12-17T13:43:09.766Z,101684.79
2018-12-17T13:45:39.568Z,101692.28
2018-12-17T13:48:09.266Z,101690.99
2018-12-17T13:50:41.038Z,101687.50
2018-12-17T13:53:16.137Z,101690.75
2018-12-17T13:55:45.932Z,101692.89
2018-12-17T13:58:15.797Z,101699.00
2018-12-17T14:00:45.541Z,101694.72
2018-12-17T14:03:15.508Z,101688.44
2018-12-17T14:05:45.341Z,101700.75
2018-12-17T14:08:15.280Z,101703.34
2018-12-17T14:10:50.911Z,101706.38
2018-12-17T14:13:20.676Z,101712.03
2018-12-17T14:15:51.610Z,101717.13
2018-12-17T14:18:27.250Z,101723.30
2018-12-17T14:21:02.267Z,101730.25
2018-12-17T14:23:32.084Z,101735.22
2018-12-17T14:26:01.949Z,101743.41
2018-12-17T14:28:31.871Z,101745.25
2018-12-17T14:31:01.847Z,101760.16
2018-12-17T14:33:31.861Z,101764.46
2018-12-17T14:36:10.833Z,101765.69
2018-12-17T14:38:40.916Z,101776.02
2018-12-17T14:41:10.780Z,101777.28
2018-12-17T14:43:40.641Z,101786.22
2018-12-17T14:46:11.405Z,101784.86
2018-12-17T14:48:41.287Z,101790.73
2018-12-17T14:51:11.819Z,101790.06
2018-12-17T14:53:41.816Z,101786.33
2018-12-17T14:56:11.721Z,101792.47
2018-12-17T14:58:44.614Z,101799.36
2018-12-17T15:01:13.294Z,101799.02
2018-12-17T15:03:43.170Z,101800.38
2018-12-17T15:06:13.640Z,101809.52
2018-12-17T15:08:43.358Z,101812.17
2018-12-17T15:11:13.056Z,101816.99
2018-12-17T15:13:42.993Z,101825.21
2018-12-17T15:16:12.900Z,101822.33
2018-12-17T15:18:42.964Z,101831.09
2018-12-17T15:21:12.944Z,101840.94
2018-12-17T15:23:42.744Z,101843.28
2018-12-17T15:26:12.769Z,101851.40
2018-12-17T15:28:42.600Z,101857.45
2018-12-17T15:31:12.619Z,101864.48
2018-12-17T15:33:42.595Z,101869.67
2018-12-17T15:36:12.381Z,101876.70
2018-12-17T15:38:42.165Z,101882.48
2018-12-17T15:41:12.108Z,101879.62
2018-12-17T15:43:42.720Z,101893.11
2018-12-17T15:46:12.446Z,101898.66
2018-12-17T15:48:42.292Z,101903.95
2018-12-17T15:51:12.087Z,101895.42
2018-12-17T15:53:42.011Z,101902.02
2018-12-17T15:56:11.972Z,101910.00
2018-12-17T15:58:41.938Z,101912.48
2018-12-17T16:01:11.737Z,101913.30
2018-12-17T16:03:41.466Z,101923.55
2018-12-17T16:06:11.237Z,101931.43
2018-12-17T16:08:41.206Z,101933.84
2018-12-17T16:11:11.474Z,101932.75
2018-12-17T16:13:41.877Z,101942.37
2018-12-17T16:16:11.697Z,101933.67
2018-12-17T16:18:42.117Z,101938.74
2018-12-17T16:21:12.001Z,101944.55
2018-12-17T16:23:41.835Z,101949.81
2018-12-17T16:26:11.713Z,101959.36
2018-12-17T16:28:41.557Z,101966.96
2018-12-17T16:31:11.354Z,101966.96
2018-12-17T16:33:41.814Z,101969.10
2018-12-17T16:36:11.905Z,101971.68
2018-12-17T16:38:41.734Z,101967.81
2018-12-17T16:41:11.802Z,101975.89
2018-12-17T16:43:41.764Z,101979.75
2018-12-17T16:46:12.772Z,101977.17
2018-12-17T16:48:43.383Z,101979.40
2018-12-17T16:51:13.889Z,101988.51
2018-12-17T16:53:43.749Z,101989.98
2018-12-17T16:56:13.668Z,101988.11
2018-12-17T16:58:44.288Z,101991.68
2018-12-17T17:01:14.065Z,101991.45
2018-12-17T17:03:43.968Z,101993.34
2018-12-17T17:06:14.380Z,101989.52
2018-12-17T17:08:44.235Z,101993.64
2018-12-17T17:11:14.706Z,101990.48
2018-12-17T17:13:45.343Z,101992.14
2018-12-17T17:16:16.225Z,101996.80
2018-12-17T17:18:46.001Z,102002.52
2018-12-17T17:21:15.812Z,102001.09
2018-12-17T17:23:45.989Z,102010.91
2018-12-17T17:26:16.011Z,102014.88
2018-12-17T17:28:46.790Z,102004.61
2018-12-17T17:31:17.347Z,102013.05
2018-12-17T17:33:47.800Z,102009.77
2018-12-17T17:36:17.577Z,102005.03
2018-12-17T17:38:47.486Z,102018.07
2018-12-17T17:41:17.222Z,102016.52
2018-12-17T17:43:47.024Z,102024.38
2018-12-17T17:46:17.294Z,102029.66
2018-12-17T17:48:47.111Z,102024.55
2018-12-17T17:51:17.271Z,102025.33
2018-12-17T17:53:48.470Z,102027.61
2018-12-17T17:56:18.233Z,102035.77
2018-12-17T17:58:48.326Z,102039.60
2018-12-17T18:01:18.153Z,102046.89
2018-12-17T18:03:48.010Z,102048.63
2018-12-17T18:06:18.090Z,102045.12
2018-12-17T18:08:48.461Z,102044.30
2018-12-17T18:11:18.287Z,102054.97
2018-12-17T18:13:48.148Z,102054.73
2018-12-17T18:16:17.897Z,102057.38
2018-12-17T18:18:47.529Z,102060.48
2018-12-17T18:21:17.366Z,102070.33
2018-12-17T18:23:47.245Z,102073.84
2018-12-17T18:26:17.001Z,102076.41
2018-12-17T18:28:47.075Z,102079.64
2018-12-17T18:31:17.509Z,102080.09
2018-12-17T18:33:47.306Z,102083.61
2018-12-17T18:36:17.182Z,102082.83
2018-12-17T18:38:46.991Z,102077.17
2018-12-17T18:41:16.829Z,102084.14
2018-12-17T18:43:46.520Z,102082.30
2018-12-17T18:46:16.350Z,102087.64
2018-12-17T18:48:46.367Z,102097.80
2018-12-17T18:51:16.318Z,102106.16
2018-12-17T18:53:46.966Z,102108.16
2018-12-17T18:56:16.813Z,102110.06
2018-12-17T18:58:46.593Z,102107.78
2018-12-17T19:01:16.620Z,102106.46
2018-12-17T19:03:46.710Z,102111.92
2018-12-17T19:06:16.999Z,102121.09
2018-12-17T19:08:46.886Z,102123.83
2018-12-17T19:11:16.831Z,102123.15
2018-12-17T19:13:46.600Z,102130.44
2018-12-17T19:16:16.326Z,102138.05
2018-12-17T19:18:46.348Z,102136.02
2018-12-17T19:21:16.150Z,102132.47
2018-12-17T19:23:45.967Z,102131.45
2018-12-17T19:26:15.842Z,102136.58
2018-12-17T19:28:45.854Z,102138.89
2018-12-17T19:34:08.318Z,102146.80
2018-12-17T19:36:38.106Z,102148.86
2018-12-17T19:39:09.393Z,102146.66
2018-12-17T19:41:39.568Z,102148.56
2018-12-17T19:44:09.441Z,102150.61
2018-12-17T19:46:39.488Z,102149.36
2018-12-17T19:49:09.399Z,102152.45
2018-12-17T19:51:39.317Z,102156.57
2018-12-17T19:54:09.137Z,102155.83
2018-12-17T19:56:39.108Z,102161.41
2018-12-17T19:59:09.120Z,102164.63
2018-12-17T20:01:38.973Z,102161.95
2018-12-17T20:04:08.681Z,102163.66
2018-12-17T20:06:38.613Z,102172.65
2018-12-17T20:09:08.753Z,102177.99
2018-12-17T20:11:38.678Z,102176.41
2018-12-17T20:14:08.461Z,102181.47
2018-12-17T20:16:38.229Z,102186.65
2018-12-17T20:19:08.644Z,102184.12
2018-12-17T20:21:38.598Z,102186.89
2018-12-17T20:24:08.507Z,102189.14
2018-12-17T20:26:38.405Z,102197.72
2018-12-17T20:29:08.196Z,102197.12
2018-12-17T20:31:38.103Z,102205.93
2018-12-17T20:34:08.474Z,102207.13
2018-12-17T20:36:38.774Z,102208.12
2018-12-17T20:39:09.451Z,102209.52
2018-12-17T20:41:39.559Z,102210.83
2018-12-17T20:44:09.445Z,102212.07
2018-12-17T20:46:39.178Z,102215.72
2018-12-17T20:49:09.021Z,102216.31
2018-12-17T20:51:39.160Z,102216.27
2018-12-17T20:54:08.924Z,102216.22
2018-12-17T20:56:38.685Z,102214.77
2018-12-17T20:59:08.552Z,102217.78
2018-12-17T21:01:38.481Z,102216.41
2018-12-17T21:04:08.275Z,102225.03
2018-12-17T21:06:38.389Z,102222.04
2018-12-17T21:09:09.789Z,102223.58
2018-12-17T21:11:39.688Z,102225.69
2018-12-17T21:14:09.609Z,102226.73
2018-12-17T21:16:39.533Z,102225.84
2018-12-17T21:19:09.446Z,102227.64
2018-12-17T21:21:39.464Z,102229.81
2018-12-17T21:24:09.215Z,102226.98
2018-12-17T21:26:38.969Z,102227.11
2018-12-17T21:29:09.570Z,102227.17
2018-12-17T21:31:39.509Z,102223.45
2018-12-17T21:34:09.371Z,102225.66
2018-12-17T21:36:39.436Z,102224.90
2018-12-17T21:39:09.622Z,102227.16
2018-12-17T21:41:39.582Z,102232.00
2018-12-17T21:44:09.431Z,102225.61
2018-12-17T21:46:39.337Z,102227.55
2018-12-17T21:49:09.397Z,102231.02
2018-12-17T21:51:39.507Z,102237.07
2018-12-17T21:54:09.590Z,102236.95
2018-12-17T21:56:39.892Z,102234.43
2018-12-17T21:59:09.874Z,102236.69
2018-12-17T22:01:39.928Z,102239.77
2018-12-17T22:04:09.951Z,102250.16
2018-12-17T22:06:39.813Z,102250.06
2018-12-17T22:09:09.759Z,102256.88
2018-12-17T22:11:39.572Z,102248.54
2018-12-17T22:14:09.416Z,102257.28
2018-12-17T22:16:39.330Z,102260.75
2018-12-17T22:19:09.155Z,102264.37
2018-12-17T22:21:39.256Z,102269.33
2018-12-17T22:24:08.930Z,102268.28
2018-12-17T22:26:39.199Z,102271.91
2018-12-17T22:29:09.131Z,102273.19
2018-12-17T22:31:39.352Z,102271.09
2018-12-17T22:34:09.188Z,102271.55
2018-12-17T22:36:39.748Z,102265.53
2018-12-17T22:39:09.465Z,102277.37
2018-12-17T22:41:39.429Z,102284.03
2018-12-17T22:44:09.403Z,102285.73
2018-12-17T22:46:39.158Z,102285.58
2018-12-17T22:49:09.618Z,102282.16
2018-12-17T22:51:39.530Z,102286.94
2018-12-17T22:54:09.408Z,102276.95
2018-12-17T22:56:39.207Z,102281.08
2018-12-17T22:59:08.988Z,102275.28
2018-12-17T23:01:38.805Z,102279.41
2018-12-17T23:04:09.592Z,102279.60
2018-12-17T23:06:39.596Z,102277.77
2018-12-17T23:09:08.383Z,102289.05
2018-12-17T23:12:00.227Z,102282.50
2018-12-17T23:14:47.203Z,102281.42
2018-12-17T23:17:33.825Z,102281.05
2018-12-17T23:20:04.780Z,102281.55
2018-12-17T23:22:35.048Z,102275.22
2018-12-17T23:25:05.802Z,102271.48
2018-12-17T23:27:36.561Z,102274.95
2018-12-17T23:30:09.201Z,102266.20
2018-12-17T23:32:39.024Z,102266.34
2018-12-17T23:35:09.600Z,102271.55
2018-12-17T23:37:39.522Z,102268.47
2018-12-17T23:40:10.293Z,102270.98
2018-12-17T23:42:41.417Z,102272.31
2018-12-17T23:45:12.002Z,102270.98
2018-12-17T23:47:41.783Z,102259.73
2018-12-17T23:50:11.563Z,102260.70
2018-12-17T23:52:41.614Z,102258.91
2018-12-17T23:55:11.541Z,102259.13
2018-12-17T23:57:41.257Z,102260.77
